createdAt,value
2019-05-22T00:00:58.134Z,100508.53
2019-05-22T00:03:33.676Z,100506.06
2019-05-22T00:08:43.130Z,100502.74
2019-05-22T00:11:13.280Z,100511.15
2019-05-22T00:13:44.508Z,100514.53
2019-05-22T00:16:14.757Z,100516.33
2019-05-22T00:21:22.294Z,100512.78
2019-05-22T00:23:52.069Z,100515.08
2019-05-22T00:26:22.918Z,100518.44
2019-05-22T00:28:53.655Z,100522.64
2019-05-22T00:31:23.320Z,100516.54
2019-05-22T00:33:54.381Z,100527.97
2019-05-22T00:36:23.803Z,100524.64
2019-05-22T00:41:37.870Z,100527.72
2019-05-22T00:44:08.380Z,100536.02
2019-05-22T00:49:16.528Z,100531.33
2019-05-22T00:52:25.302Z,100534.88
2019-05-22T00:57:56.317Z,100538.77
2019-05-22T01:00:28.018Z,100537.34
2019-05-22T01:05:48.191Z,100536.98
2019-05-22T01:08:17.623Z,100547.00
2019-05-22T01:13:35.680Z,100555.25
2019-05-22T01:16:07.786Z,100559.51
2019-05-22T01:18:38.724Z,100554.11
2019-05-22T01:21:09.805Z,100554.34
2019-05-22T01:26:25.679Z,100550.66
2019-05-22T01:28:55.747Z,100556.24
2019-05-22T01:31:35.627Z,100557.04
2019-05-22T01:34:12.169Z,100550.00
2019-05-22T01:36:46.829Z,100549.00
2019-05-22T01:42:27.862Z,100549.00
2019-05-22T01:45:05.675Z,100551.65
2019-05-22T01:47:53.348Z,100557.75
2019-05-22T01:50:41.274Z,100559.55
2019-05-22T01:53:13.210Z,100565.64
2019-05-22T01:58:30.313Z,100567.73
2019-05-22T02:01:00.203Z,100578.34
2019-05-22T02:06:09.484Z,100578.10
2019-05-22T02:08:44.989Z,100580.52
2019-05-22T02:11:19.164Z,100582.37
2019-05-22T02:13:57.521Z,100588.17
2019-05-22T02:16:30.106Z,100580.75
2019-05-22T02:21:37.578Z,100583.02
2019-05-22T02:24:07.042Z,100583.92
2019-05-22T02:29:23.096Z,100585.40
2019-05-22T02:31:55.579Z,100589.95
2019-05-22T02:37:06.972Z,100595.23
2019-05-22T02:42:25.911Z,100598.45
2019-05-22T02:44:55.112Z,100607.63
2019-05-22T02:47:24.848Z,100608.28
2019-05-22T02:49:55.581Z,100603.05
2019-05-22T02:52:25.086Z,100609.19
2019-05-22T02:54:55.023Z,100606.02
2019-05-22T02:57:27.869Z,100611.62
2019-05-22T02:59:58.037Z,100605.62
2019-05-22T03:05:10.451Z,100604.29
2019-05-22T03:07:41.284Z,100611.31
2019-05-22T03:12:56.031Z,100604.13
2019-05-22T03:18:07.697Z,100608.11
2019-05-22T03:20:39.785Z,100615.43
2019-05-22T03:23:35.926Z,100616.37
2019-05-22T03:26:07.642Z,100616.06
2019-05-22T03:31:18.166Z,100614.66
2019-05-22T03:33:47.435Z,100624.31
2019-05-22T03:36:20.375Z,100624.18
2019-05-22T03:38:50.117Z,100621.84
2019-05-22T03:41:20.312Z,100626.13
2019-05-22T03:43:50.789Z,100629.94
2019-05-22T03:46:45.675Z,100632.03
2019-05-22T03:49:30.113Z,100637.49
2019-05-22T03:51:51.938Z,100650.27
2019-05-22T03:54:21.470Z,100649.50
2019-05-22T03:59:28.577Z,100658.66
2019-05-22T04:01:58.591Z,100665.05
2019-05-22T04:04:39.714Z,100661.22
2019-05-22T04:07:13.585Z,100662.07
2019-05-22T04:09:44.976Z,100661.86
2019-05-22T04:14:56.570Z,100659.41
2019-05-22T04:20:09.092Z,100665.34
2019-05-22T04:22:38.872Z,100669.31
2019-05-22T04:25:09.660Z,100677.00
2019-05-22T04:27:39.897Z,100680.30
2019-05-22T04:30:12.507Z,100692.52
2019-05-22T04:32:44.199Z,100682.78
2019-05-22T04:35:16.931Z,100691.73
2019-05-22T04:37:49.014Z,100687.77
2019-05-22T04:40:57.469Z,100696.47
2019-05-22T04:43:30.464Z,100701.39
2019-05-22T04:46:00.734Z,100704.72
2019-05-22T04:48:34.732Z,100709.47
2019-05-22T04:54:00.047Z,100692.82
2019-05-22T04:56:29.685Z,100700.75
2019-05-22T04:59:01.140Z,100698.88
2019-05-22T05:04:07.848Z,100699.30
2019-05-22T05:06:36.970Z,100705.78
2019-05-22T05:09:13.785Z,100712.56
2019-05-22T05:14:26.250Z,100710.56
2019-05-22T05:19:33.413Z,100712.53
2019-05-22T05:24:40.314Z,100713.44
2019-05-22T05:29:53.078Z,100714.08
2019-05-22T05:32:22.591Z,100719.38
2019-05-22T05:35:00.859Z,100715.57
2019-05-22T05:37:29.676Z,100717.12
2019-05-22T05:40:31.247Z,100720.70
2019-05-22T05:43:01.005Z,100725.23
2019-05-22T05:45:32.097Z,100734.98
2019-05-22T05:48:02.775Z,100738.09
2019-05-22T05:50:39.732Z,100745.44
2019-05-22T05:53:06.092Z,100740.66
2019-05-22T05:56:13.854Z,100743.31
2019-05-22T05:58:43.836Z,100744.03
2019-05-22T06:01:23.715Z,100745.25
2019-05-22T06:07:19.125Z,100742.30
2019-05-22T06:10:42.675Z,100748.41
2019-05-22T06:13:12.283Z,100745.45
2019-05-22T06:16:48.763Z,100749.78
2019-05-22T06:19:19.404Z,100755.16
2019-05-22T06:21:49.724Z,100757.09
2019-05-22T06:24:45.150Z,100751.48
2019-05-22T06:27:25.300Z,100748.20
2019-05-22T06:30:06.959Z,100747.59
2019-05-22T06:33:38.589Z,100755.59
2019-05-22T06:36:13.747Z,100756.32
2019-05-22T06:39:02.567Z,100767.98
2019-05-22T06:41:38.202Z,100762.09
2019-05-22T06:44:42.851Z,100765.20
2019-05-22T06:50:05.927Z,100755.20
2019-05-22T06:52:35.798Z,100763.29
2019-05-22T06:55:05.609Z,100760.81
2019-05-22T06:57:35.822Z,100765.25
2019-05-22T07:00:21.468Z,100772.66
2019-05-22T07:02:50.509Z,100772.27
2019-05-22T07:05:19.774Z,100773.13
2019-05-22T07:07:49.117Z,100773.30
2019-05-22T07:10:18.922Z,100780.55
2019-05-22T07:12:50.898Z,100780.09
2019-05-22T07:15:41.266Z,100783.29
2019-05-22T07:18:13.046Z,100789.92
2019-05-22T07:20:44.720Z,100796.33
2019-05-22T07:23:16.385Z,100802.53
2019-05-22T07:25:46.730Z,100803.95
2019-05-22T07:28:17.915Z,100807.79
2019-05-22T07:33:25.446Z,100802.48
2019-05-22T07:36:09.427Z,100822.02
2019-05-22T07:38:27.270Z,100819.51
2019-05-22T07:40:56.541Z,100815.41
2019-05-22T07:43:25.977Z,100810.80
2019-05-22T07:45:56.492Z,100816.27
2019-05-22T07:48:27.583Z,100813.91
2019-05-22T07:50:57.781Z,100814.06
2019-05-22T07:53:27.467Z,100821.00
2019-05-22T07:55:59.071Z,100822.96
2019-05-22T07:58:30.631Z,100826.70
2019-05-22T08:01:01.683Z,100822.50
2019-05-22T08:03:32.047Z,100827.11
2019-05-22T08:06:01.334Z,100832.09
2019-05-22T08:08:33.047Z,100839.58
2019-05-22T08:13:43.922Z,100846.20
2019-05-22T08:16:13.064Z,100848.47
2019-05-22T08:18:42.429Z,100858.86
2019-05-22T08:23:53.029Z,100851.52
2019-05-22T08:29:06.667Z,100857.34
2019-05-22T08:31:37.813Z,100861.20
2019-05-22T08:34:08.348Z,100862.40
2019-05-22T08:36:39.168Z,100882.27
2019-05-22T08:41:47.057Z,100871.66
2019-05-22T08:44:18.027Z,100873.06
2019-05-22T08:46:47.989Z,100885.47
2019-05-22T08:49:17.280Z,100882.99
2019-05-22T08:51:46.507Z,100883.53
2019-05-22T08:54:15.933Z,100885.88
2019-05-22T08:56:50.373Z,100891.33
2019-05-22T08:59:20.696Z,100892.19
2019-05-22T09:01:49.952Z,100893.66
2019-05-22T09:04:19.304Z,100896.00
2019-05-22T09:06:48.797Z,100894.98
2019-05-22T09:09:18.008Z,100894.90
2019-05-22T09:11:47.550Z,100899.66
2019-05-22T09:14:16.730Z,100903.41
2019-05-22T09:19:26.569Z,100908.94
2019-05-22T09:21:56.796Z,100912.53
2019-05-22T09:27:04.772Z,100909.44
2019-05-22T09:32:10.974Z,100928.83
2019-05-22T09:34:40.183Z,100925.74
2019-05-22T09:39:47.823Z,100933.45
2019-05-22T09:42:17.103Z,100932.80
2019-05-22T09:44:45.886Z,100934.91
2019-05-22T09:47:14.530Z,100940.59
2019-05-22T09:49:44.121Z,100936.11
2019-05-22T09:52:13.396Z,100941.19
2019-05-22T09:57:22.340Z,100936.22
2019-05-22T09:59:50.962Z,100950.18
2019-05-22T10:02:20.105Z,100943.63
2019-05-22T10:04:49.085Z,100934.48
2019-05-22T10:09:56.328Z,100952.66
2019-05-22T10:12:25.067Z,100957.92
2019-05-22T10:14:54.195Z,100957.45
2019-05-22T10:17:24.045Z,100958.31
2019-05-22T10:19:53.265Z,100948.89
2019-05-22T10:22:22.768Z,100967.25
2019-05-22T10:24:52.461Z,100964.22
2019-05-22T10:27:22.534Z,100974.74
2019-05-22T10:32:32.658Z,100973.21
2019-05-22T10:35:01.729Z,100972.91
2019-05-22T10:37:30.463Z,100978.91
2019-05-22T10:39:59.886Z,100975.68
2019-05-22T10:42:29.257Z,100977.74
2019-05-22T10:44:57.978Z,100973.98
2019-05-22T10:47:26.685Z,100976.63
2019-05-22T10:49:57.265Z,100977.10
2019-05-22T10:52:26.406Z,100976.89
2019-05-22T10:54:56.086Z,100988.23
2019-05-22T10:57:25.644Z,100993.84
2019-05-22T10:59:54.689Z,100993.92
2019-05-22T11:05:03.126Z,100995.00
2019-05-22T11:07:33.281Z,101005.60
2019-05-22T11:10:03.150Z,101008.12
2019-05-22T11:12:32.235Z,101004.16
2019-05-22T11:15:01.356Z,101008.69
2019-05-22T11:17:31.746Z,101009.63
2019-05-22T11:20:00.407Z,101008.22
2019-05-22T11:25:12.926Z,101017.42
2019-05-22T11:27:41.648Z,101013.14
2019-05-22T11:30:13.406Z,101016.09
2019-05-22T11:35:22.251Z,101016.98
2019-05-22T11:37:52.470Z,101018.37
2019-05-22T11:43:04.065Z,101025.73
2019-05-22T11:45:33.799Z,101027.19
2019-05-22T11:50:46.837Z,101030.17
2019-05-22T11:53:16.339Z,101027.66
2019-05-22T11:55:46.353Z,101023.06
2019-05-22T11:58:15.935Z,101025.27
2019-05-22T12:03:24.308Z,101021.94
2019-05-22T12:08:38.268Z,101020.35
2019-05-22T12:11:08.094Z,101029.02
2019-05-22T12:16:23.111Z,101034.95
2019-05-22T12:18:53.391Z,101052.53
2019-05-22T12:21:22.284Z,101040.19
2019-05-22T12:23:51.708Z,101041.27
2019-05-22T12:26:21.046Z,101042.44
2019-05-22T12:31:27.813Z,101031.82
2019-05-22T12:33:57.027Z,101036.63
2019-05-22T12:36:28.271Z,101040.59
2019-05-22T12:38:58.493Z,101034.05
2019-05-22T12:41:28.612Z,101041.91
2019-05-22T12:43:57.316Z,101042.12
2019-05-22T12:46:27.905Z,101046.80
2019-05-22T12:48:58.206Z,101031.70
2019-05-22T12:54:05.771Z,101042.45
2019-05-22T12:59:14.465Z,101035.70
2019-05-22T13:01:45.461Z,101040.27
2019-05-22T13:04:15.521Z,101031.48
2019-05-22T13:06:45.195Z,101033.31
2019-05-22T13:09:14.681Z,101045.45
2019-05-22T13:11:46.656Z,101040.02
2019-05-22T13:16:59.360Z,101030.37
2019-05-22T13:19:32.660Z,101047.11
2019-05-22T13:24:44.594Z,101032.31
2019-05-22T13:29:54.725Z,101039.91
2019-05-22T13:32:23.939Z,101046.39
2019-05-22T13:34:54.027Z,101042.09
2019-05-22T13:37:22.899Z,101033.44
2019-05-22T13:39:52.430Z,101042.05
2019-05-22T13:42:22.117Z,101052.33
2019-05-22T13:44:54.301Z,101053.43
2019-05-22T13:47:25.025Z,101055.02
2019-05-22T13:49:55.051Z,101056.84
2019-05-22T13:52:25.112Z,101052.76
2019-05-22T13:54:56.046Z,101063.80
2019-05-22T13:57:25.516Z,101060.54
2019-05-22T13:59:54.374Z,101057.02
2019-05-22T14:02:26.976Z,101067.06
2019-05-22T14:04:54.917Z,101069.77
2019-05-22T14:07:24.179Z,101073.67
2019-05-22T14:09:54.090Z,101071.31
2019-05-22T14:15:02.706Z,101066.34
2019-05-22T14:17:32.515Z,101073.56
2019-05-22T14:20:02.217Z,101078.32
2019-05-22T14:22:31.020Z,101080.59
2019-05-22T14:25:00.098Z,101083.84
2019-05-22T14:27:29.197Z,101082.34
2019-05-22T14:29:58.006Z,101082.34
2019-05-22T14:35:04.928Z,101066.12
2019-05-22T14:37:34.184Z,101071.69
2019-05-22T14:40:04.236Z,101075.84
2019-05-22T14:42:33.408Z,101077.18
2019-05-22T14:45:02.395Z,101073.20
2019-05-22T14:47:31.033Z,101068.08
2019-05-22T14:49:59.862Z,101075.84
2019-05-22T14:52:28.883Z,101072.42
2019-05-22T14:54:57.587Z,101079.08
2019-05-22T14:57:26.672Z,101074.74
2019-05-22T14:59:56.528Z,101073.58
2019-05-22T15:02:25.704Z,101067.50
2019-05-22T15:04:55.198Z,101065.46
2019-05-22T15:07:24.422Z,101069.22
2019-05-22T15:09:53.089Z,101069.22
2019-05-22T15:12:22.228Z,101072.45
2019-05-22T15:17:32.194Z,101072.19
2019-05-22T15:22:36.812Z,101070.61
2019-05-22T15:25:06.321Z,101074.55
2019-05-22T15:27:35.432Z,101077.77
2019-05-22T15:30:04.859Z,101086.20
2019-05-22T15:35:15.092Z,101076.69
2019-05-22T15:37:45.960Z,101085.23
2019-05-22T15:40:18.789Z,101073.17
2019-05-22T15:42:48.008Z,101068.89
2019-05-22T15:45:20.556Z,101069.96
2019-05-22T15:47:55.337Z,101067.41
2019-05-22T15:50:27.287Z,101065.34
2019-05-22T15:53:02.506Z,101064.93
2019-05-22T15:55:33.423Z,101065.67
2019-05-22T16:00:47.527Z,101061.36
2019-05-22T16:03:20.578Z,101072.98
2019-05-22T16:05:52.741Z,101061.22
2019-05-22T16:08:22.423Z,101066.43
2019-05-22T16:10:51.978Z,101060.13
2019-05-22T16:13:24.675Z,101066.48
2019-05-22T16:15:56.459Z,101067.92
2019-05-22T16:18:31.472Z,101071.03
2019-05-22T16:21:04.446Z,101063.42
2019-05-22T16:23:37.833Z,101068.58
2019-05-22T16:26:09.308Z,101067.95
2019-05-22T16:31:18.902Z,101068.63
2019-05-22T16:33:51.168Z,101064.63
2019-05-22T16:36:20.771Z,101065.18
2019-05-22T16:38:50.651Z,101062.02
2019-05-22T16:44:04.264Z,101071.00
2019-05-22T16:49:15.711Z,101064.34
2019-05-22T16:51:45.995Z,101069.47
2019-05-22T16:54:20.473Z,101072.52
2019-05-22T16:56:47.711Z,101070.49
2019-05-22T16:59:18.137Z,101079.20
2019-05-22T17:01:58.916Z,101068.63
2019-05-22T17:04:18.066Z,101082.06
2019-05-22T17:06:47.096Z,101077.12
2019-05-22T17:09:18.553Z,101079.88
2019-05-22T17:14:25.735Z,101084.30
2019-05-22T17:16:54.838Z,101086.20
2019-05-22T17:22:05.148Z,101086.19
2019-05-22T17:24:34.423Z,101088.66
2019-05-22T17:27:04.006Z,101091.05
2019-05-22T17:29:33.817Z,101086.47
2019-05-22T17:32:03.730Z,101094.53
2019-05-22T17:37:13.659Z,101090.92
2019-05-22T17:39:46.139Z,101091.79
2019-05-22T17:42:18.876Z,101092.16
2019-05-22T17:44:51.414Z,101088.80
2019-05-22T17:47:23.364Z,101090.92
2019-05-22T17:52:30.043Z,101092.44
2019-05-22T17:54:59.059Z,101097.98
2019-05-22T17:57:30.087Z,101092.36
2019-05-22T18:02:50.957Z,101094.28
2019-05-22T18:05:20.083Z,101106.77
2019-05-22T18:07:49.502Z,101107.90
2019-05-22T18:10:18.556Z,101107.15
2019-05-22T18:12:47.455Z,101110.00
2019-05-22T18:15:17.083Z,101112.39
2019-05-22T18:17:47.235Z,101111.23
2019-05-22T18:20:18.205Z,101118.16
2019-05-22T18:22:47.159Z,101117.51
2019-05-22T18:27:54.334Z,101110.42
2019-05-22T18:30:25.769Z,101113.78
2019-05-22T18:35:32.740Z,101111.22
2019-05-22T18:38:04.603Z,101108.81
2019-05-22T18:43:10.303Z,101115.56
2019-05-22T18:45:39.957Z,101110.16
2019-05-22T18:48:09.316Z,101119.78
2019-05-22T18:50:38.115Z,101120.20
2019-05-22T18:53:07.033Z,101118.84
2019-05-22T18:58:16.047Z,101119.69
2019-05-22T19:00:45.514Z,101128.36
2019-05-22T19:03:14.200Z,101128.43
2019-05-22T19:05:43.499Z,101133.76
2019-05-22T19:08:13.098Z,101129.02
2019-05-22T19:13:21.220Z,101135.91
2019-05-22T19:15:50.033Z,101136.36
2019-05-22T19:18:19.541Z,101138.02
2019-05-22T19:20:48.524Z,101142.55
2019-05-22T19:23:17.237Z,101141.86
2019-05-22T19:25:46.001Z,101146.17
2019-05-22T19:30:55.436Z,101153.02
2019-05-22T19:33:24.723Z,101158.02
2019-05-22T19:35:54.661Z,101155.50
2019-05-22T19:38:24.227Z,101158.17
2019-05-22T19:40:52.858Z,101164.97
2019-05-22T19:43:21.731Z,101167.92
2019-05-22T19:45:51.578Z,101170.08
2019-05-22T19:48:20.853Z,101174.50
2019-05-22T19:50:50.441Z,101172.14
2019-05-22T19:55:59.913Z,101175.55
2019-05-22T19:58:29.829Z,101178.00
2019-05-22T20:00:58.567Z,101172.72
2019-05-22T20:03:27.992Z,101176.59
2019-05-22T20:05:56.701Z,101178.88
2019-05-22T20:08:25.638Z,101180.08
2019-05-22T20:10:54.510Z,101180.98
2019-05-22T20:16:04.215Z,101181.19
2019-05-22T20:18:33.450Z,101179.59
2019-05-22T20:21:02.076Z,101188.61
2019-05-22T20:23:36.058Z,101181.34
2019-05-22T20:26:01.753Z,101188.09
2019-05-22T20:28:31.415Z,101184.19
2019-05-22T20:31:00.670Z,101180.56
2019-05-22T20:36:06.916Z,101173.25
2019-05-22T20:38:36.463Z,101183.77
2019-05-22T20:41:05.949Z,101183.30
2019-05-22T20:43:34.908Z,101185.69
2019-05-22T20:46:06.358Z,101189.25
2019-05-22T20:48:35.555Z,101189.50
2019-05-22T20:51:07.423Z,101192.55
2019-05-22T20:53:52.996Z,101192.41
2019-05-22T20:56:10.865Z,101192.33
2019-05-22T20:58:40.516Z,101190.14
2019-05-22T21:01:10.339Z,101186.53
2019-05-22T21:06:22.622Z,101190.99
2019-05-22T21:08:52.097Z,101192.30
2019-05-22T21:11:25.446Z,101193.55
2019-05-22T21:13:54.106Z,101196.53
2019-05-22T21:16:22.983Z,101193.63
2019-05-22T21:18:52.758Z,101204.08
2019-05-22T21:21:24.660Z,101200.28
2019-05-22T21:24:09.286Z,101200.98
2019-05-22T21:29:04.250Z,101198.86
2019-05-22T21:31:34.340Z,101199.89
2019-05-22T21:34:03.429Z,101208.61
2019-05-22T21:36:33.546Z,101207.02
2019-05-22T21:39:02.848Z,101203.51
2019-05-22T21:41:31.977Z,101210.29
2019-05-22T21:44:00.645Z,101206.37
2019-05-22T21:46:30.404Z,101203.80
2019-05-22T21:48:59.996Z,101205.12
2019-05-22T21:54:09.084Z,101205.91
2019-05-22T21:56:39.053Z,101206.14
2019-05-22T21:59:08.217Z,101202.91
2019-05-22T22:01:47.722Z,101205.16
2019-05-22T22:04:25.422Z,101214.23
2019-05-22T22:06:55.099Z,101211.25
2019-05-22T22:09:26.230Z,101211.19
2019-05-22T22:11:55.577Z,101219.44
2019-05-22T22:14:25.432Z,101226.91
2019-05-22T22:16:55.881Z,101225.80
2019-05-22T22:19:25.619Z,101229.59
2019-05-22T22:21:55.635Z,101229.98
2019-05-22T22:24:25.887Z,101230.08
2019-05-22T22:26:56.296Z,101234.05
2019-05-22T22:29:25.481Z,101231.61
2019-05-22T22:31:57.293Z,101234.25
2019-05-22T22:34:39.986Z,101235.30
2019-05-22T22:37:11.079Z,101234.98
2019-05-22T22:39:43.022Z,101235.79
2019-05-22T22:42:13.970Z,101238.64
2019-05-22T22:44:46.080Z,101234.28
2019-05-22T22:47:19.661Z,101238.06
2019-05-22T22:49:48.662Z,101241.21
2019-05-22T22:52:18.889Z,101247.11
2019-05-22T22:54:48.096Z,101243.54
2019-05-22T22:57:17.956Z,101241.02
2019-05-22T22:59:47.419Z,101242.02
2019-05-22T23:02:20.904Z,101237.94
2019-05-22T23:04:51.405Z,101232.66
2019-05-22T23:07:21.982Z,101234.90
2019-05-22T23:09:51.836Z,101236.54
2019-05-22T23:12:21.093Z,101231.31
2019-05-22T23:14:56.642Z,101236.14
2019-05-22T23:17:26.225Z,101239.98
2019-05-22T23:22:35.483Z,101235.02
2019-05-22T23:25:06.534Z,101242.54
2019-05-22T23:27:38.642Z,101247.16
2019-05-22T23:30:09.820Z,101248.30
2019-05-22T23:32:40.937Z,101244.73
2019-05-22T23:35:09.953Z,101252.78
2019-05-22T23:37:40.662Z,101249.92
2019-05-22T23:40:13.007Z,101254.50
2019-05-22T23:42:43.387Z,101251.13
2019-05-22T23:45:18.345Z,101251.53
2019-05-22T23:48:06.096Z,101253.38
2019-05-22T23:50:37.644Z,101257.13
2019-05-22T23:53:08.184Z,101250.12
2019-05-22T23:55:38.499Z,101257.13
2019-05-22T23:58:11.647Z,101251.52
